createdAt,value
2022-10-13T00:01:21.981Z,80.06
2022-10-13T00:03:50.868Z,80.04
2022-10-13T00:06:26.586Z,80.10
2022-10-13T00:08:56.746Z,80.13
2022-10-13T00:11:29.949Z,80.07
2022-10-13T00:14:00.796Z,80.57
2022-10-13T00:16:31.358Z,81.47
2022-10-13T00:18:59.667Z,81.83
2022-10-13T00:21:28.468Z,81.55
2022-10-13T00:23:57.446Z,81.12
2022-10-13T00:26:26.605Z,80.83
2022-10-13T00:28:56.562Z,80.65
2022-10-13T00:31:32.361Z,80.56
2022-10-13T00:34:01.503Z,80.78
2022-10-13T00:36:33.158Z,81.32
2022-10-13T00:39:01.200Z,81.66
2022-10-13T00:41:29.362Z,81.73
2022-10-13T00:44:01.734Z,81.23
2022-10-13T00:46:35.981Z,80.86
2022-10-13T00:49:17.274Z,80.92
2022-10-13T00:51:50.362Z,80.91
2022-10-13T00:54:23.039Z,80.70
2022-10-13T00:56:52.201Z,80.43
2022-10-13T00:59:23.798Z,80.36
2022-10-13T01:01:55.131Z,80.15
2022-10-13T01:04:27.099Z,79.68
2022-10-13T01:06:56.914Z,79.73
2022-10-13T01:09:25.078Z,79.68
2022-10-13T01:12:19.615Z,79.61
2022-10-13T01:15:06.894Z,79.74
2022-10-13T01:17:50.013Z,80.10
2022-10-13T01:20:17.899Z,80.23
2022-10-13T01:22:56.168Z,80.43
2022-10-13T01:25:39.310Z,80.59
2022-10-13T01:28:35.274Z,80.73
2022-10-13T01:31:19.432Z,81.23
2022-10-13T01:33:57.798Z,81.25
2022-10-13T01:36:50.759Z,81.32
2022-10-13T01:39:30.291Z,81.52
2022-10-13T01:42:11.673Z,81.94
2022-10-13T01:44:46.502Z,81.94
2022-10-13T01:47:17.851Z,82.12
2022-10-13T01:49:47.805Z,82.24
2022-10-13T01:52:20.595Z,82.24
2022-10-13T01:54:53.119Z,82.30
2022-10-13T01:57:47.405Z,82.20
2022-10-13T02:00:19.060Z,82.17
2022-10-13T02:03:08.836Z,82.37
2022-10-13T02:06:22.590Z,82.38
2022-10-13T02:09:14.409Z,82.33
2022-10-13T02:11:51.749Z,82.33
2022-10-13T02:14:26.622Z,82.29
2022-10-13T02:16:59.592Z,82.10
2022-10-13T02:19:28.922Z,81.94
2022-10-13T02:21:58.482Z,81.87
2022-10-13T02:24:26.891Z,81.98
2022-10-13T02:26:55.275Z,82.02
2022-10-13T02:29:23.648Z,81.74
2022-10-13T02:31:54.936Z,81.47
2022-10-13T02:34:23.023Z,81.34
2022-10-13T02:36:50.934Z,81.22
2022-10-13T02:39:18.900Z,81.17
2022-10-13T02:41:46.867Z,80.92
2022-10-13T02:44:14.841Z,80.63
2022-10-13T02:46:42.806Z,80.61
2022-10-13T02:49:11.091Z,80.57
2022-10-13T02:51:40.368Z,80.48
2022-10-13T02:54:08.861Z,80.37
2022-10-13T02:56:36.836Z,80.30
2022-10-13T02:59:04.903Z,80.28
2022-10-13T03:01:33.259Z,80.28
2022-10-13T03:04:01.244Z,80.23
2022-10-13T03:06:29.148Z,79.96
2022-10-13T03:08:57.100Z,79.92
2022-10-13T03:11:25.936Z,79.79
2022-10-13T03:13:54.447Z,79.83
2022-10-13T03:16:22.426Z,79.86
2022-10-13T03:18:50.621Z,79.76
2022-10-13T03:21:18.562Z,79.71
2022-10-13T03:23:46.534Z,79.58
2022-10-13T03:26:15.725Z,79.49
2022-10-13T03:28:43.892Z,79.20
2022-10-13T03:31:12.942Z,79.00
2022-10-13T03:33:41.264Z,79.11
2022-10-13T03:36:10.769Z,79.19
2022-10-13T03:38:39.717Z,79.26
2022-10-13T03:41:15.579Z,79.20
2022-10-13T03:43:45.600Z,79.27
2022-10-13T03:46:17.491Z,79.20
2022-10-13T03:48:47.637Z,79.03
2022-10-13T03:51:19.435Z,78.97
2022-10-13T03:53:48.878Z,78.97
2022-10-13T03:56:20.113Z,78.83
2022-10-13T03:59:00.073Z,78.94
2022-10-13T04:01:29.945Z,78.94
2022-10-13T04:03:59.296Z,78.75
2022-10-13T04:06:27.349Z,78.48
2022-10-13T04:08:55.725Z,78.70
2022-10-13T04:11:24.004Z,78.45
2022-10-13T04:13:53.377Z,78.30
2022-10-13T04:16:24.139Z,78.12
2022-10-13T04:18:57.741Z,78.07
2022-10-13T04:21:26.934Z,77.96
2022-10-13T04:23:59.941Z,78.06
2022-10-13T04:26:30.183Z,78.11
2022-10-13T04:28:59.143Z,77.91
2022-10-13T04:31:29.426Z,77.84
2022-10-13T04:33:58.244Z,77.59
2022-10-13T04:36:27.127Z,77.53
2022-10-13T04:38:55.999Z,77.37
2022-10-13T04:41:24.301Z,77.30
2022-10-13T04:43:53.470Z,77.41
2022-10-13T04:46:25.637Z,77.46
2022-10-13T04:48:55.809Z,77.52
2022-10-13T04:51:27.391Z,77.65
2022-10-13T04:53:59.397Z,77.65
2022-10-13T04:56:28.253Z,77.46
2022-10-13T04:59:00.868Z,77.27
2022-10-13T05:01:28.830Z,77.24
2022-10-13T05:04:02.240Z,77.00
2022-10-13T05:06:34.699Z,77.04
2022-10-13T05:09:04.099Z,77.01
2022-10-13T05:11:33.096Z,76.82
2022-10-13T05:14:02.699Z,76.74
2022-10-13T05:16:31.386Z,76.59
2022-10-13T05:18:59.454Z,76.60
2022-10-13T05:21:29.128Z,76.66
2022-10-13T05:23:58.507Z,76.55
2022-10-13T05:26:29.355Z,76.36
2022-10-13T05:29:01.158Z,76.36
2022-10-13T05:31:34.770Z,76.25
2022-10-13T05:34:03.004Z,76.27
2022-10-13T05:36:33.575Z,76.36
2022-10-13T05:39:04.691Z,76.33
2022-10-13T05:41:32.674Z,76.40
2022-10-13T05:44:07.275Z,76.48
2022-10-13T05:46:36.097Z,76.36
2022-10-13T05:49:04.814Z,76.11
2022-10-13T05:51:40.214Z,76.07
2022-10-13T05:54:30.254Z,76.16
2022-10-13T05:57:06.943Z,76.15
2022-10-13T05:59:40.797Z,76.14
2022-10-13T06:02:12.561Z,75.99
2022-10-13T06:04:46.520Z,75.94
2022-10-13T06:07:14.595Z,75.76
2022-10-13T06:09:43.379Z,75.76
2022-10-13T06:12:11.371Z,75.65
2022-10-13T06:14:40.053Z,75.56
2022-10-13T06:17:11.197Z,75.53
2022-10-13T06:19:39.790Z,75.57
2022-10-13T06:22:09.064Z,75.40
2022-10-13T06:24:37.316Z,75.41
2022-10-13T06:27:06.549Z,75.21
2022-10-13T06:29:34.580Z,75.09
2022-10-13T06:32:02.588Z,74.97
2022-10-13T06:34:30.560Z,74.79
2022-10-13T06:36:58.531Z,74.69
2022-10-13T06:39:26.699Z,74.64
2022-10-13T06:41:55.562Z,74.62
2022-10-13T06:44:32.498Z,74.44
2022-10-13T06:47:05.324Z,74.37
2022-10-13T06:49:33.528Z,74.40
2022-10-13T06:52:01.697Z,74.17
2022-10-13T06:54:29.870Z,73.53
2022-10-13T06:56:58.041Z,73.62
2022-10-13T06:59:27.875Z,73.40
2022-10-13T07:01:55.936Z,73.44
2022-10-13T07:04:26.042Z,73.37
2022-10-13T07:06:56.224Z,73.31
2022-10-13T07:09:24.537Z,72.92
2022-10-13T07:11:52.507Z,72.87
2022-10-13T07:14:20.476Z,72.92
2022-10-13T07:16:48.757Z,72.84
2022-10-13T07:19:16.726Z,72.89
2022-10-13T07:21:44.813Z,72.65
2022-10-13T07:24:13.064Z,72.33
2022-10-13T07:26:41.028Z,72.02
2022-10-13T07:29:09.882Z,71.86
2022-10-13T07:31:37.991Z,71.65
2022-10-13T07:34:06.858Z,71.71
2022-10-13T07:36:35.638Z,71.56
2022-10-13T07:39:04.350Z,71.08
2022-10-13T07:41:32.732Z,70.63
2022-10-13T07:44:00.798Z,70.22
2022-10-13T07:46:29.895Z,69.87
2022-10-13T07:48:58.381Z,69.61
2022-10-13T07:51:26.445Z,69.82
2022-10-13T07:53:54.717Z,69.57
2022-10-13T07:56:22.688Z,69.42
2022-10-13T07:58:50.556Z,69.26
2022-10-13T08:01:18.564Z,69.44
2022-10-13T08:03:49.937Z,69.63
2022-10-13T08:06:19.488Z,69.83
2022-10-13T08:08:48.777Z,69.32
2022-10-13T08:11:18.391Z,69.50
2022-10-13T08:13:49.014Z,69.81
2022-10-13T08:16:22.613Z,69.40
2022-10-13T08:18:50.789Z,68.82
2022-10-13T08:24:14.052Z,68.66
2022-10-13T08:26:43.228Z,68.31
2022-10-13T08:29:27.242Z,67.92
2022-10-13T08:31:56.131Z,66.91
2022-10-13T08:34:25.058Z,66.85
2022-10-13T08:36:54.837Z,66.42
2022-10-13T08:39:24.629Z,66.67
2022-10-13T08:41:54.484Z,66.48
2022-10-13T08:45:06.260Z,66.31
2022-10-13T08:47:27.324Z,65.97
2022-10-13T08:50:04.095Z,66.04
2022-10-13T08:53:04.646Z,65.96
2022-10-13T08:55:51.125Z,66.16
2022-10-13T08:58:25.887Z,66.08
2022-10-13T09:01:09.186Z,65.66
2022-10-13T09:03:57.222Z,65.16
2022-10-13T09:06:34.009Z,64.84
2022-10-13T09:09:07.047Z,64.36
2022-10-13T09:11:41.105Z,64.19
2022-10-13T09:14:12.957Z,63.65
2022-10-13T09:16:44.300Z,63.51
2022-10-13T09:19:21.081Z,63.62
2022-10-13T09:21:55.967Z,63.03
2022-10-13T09:24:26.285Z,62.81
2022-10-13T09:27:07.252Z,62.50
2022-10-13T09:29:40.463Z,62.02
2022-10-13T09:32:14.395Z,61.25
2022-10-13T09:34:43.196Z,61.38
2022-10-13T09:37:21.393Z,60.74
2022-10-13T09:40:13.629Z,60.68
2022-10-13T09:42:41.705Z,59.92
2022-10-13T09:45:21.755Z,59.17
2022-10-13T09:47:54.636Z,59.02
2022-10-13T09:50:26.086Z,59.31
2022-10-13T09:53:31.431Z,58.82
2022-10-13T09:56:08.821Z,58.60
2022-10-13T10:01:27.692Z,57.23
2022-10-13T10:03:57.715Z,57.35
2022-10-13T10:06:27.830Z,57.39
2022-10-13T10:09:45.151Z,57.35
2022-10-13T10:12:18.240Z,57.32
2022-10-13T10:14:48.564Z,55.89
2022-10-13T10:17:28.615Z,55.55
2022-10-13T10:20:34.790Z,55.90
2022-10-13T10:23:21.284Z,55.01
2022-10-13T10:25:54.271Z,55.14
2022-10-13T10:29:01.918Z,54.78
2022-10-13T10:31:35.666Z,55.49
2022-10-13T10:34:14.836Z,55.06
2022-10-13T10:36:51.058Z,55.00
2022-10-13T10:39:36.913Z,55.45
2022-10-13T10:42:17.863Z,55.30
2022-10-13T10:44:49.370Z,55.06
2022-10-13T10:48:12.131Z,53.91
2022-10-13T10:50:40.259Z,53.83
2022-10-13T10:53:29.661Z,53.93
2022-10-13T10:56:17.188Z,52.80
2022-10-13T10:59:00.415Z,52.73
2022-10-13T11:01:37.887Z,52.99
2022-10-13T11:04:21.034Z,53.56
2022-10-13T11:06:49.107Z,53.54
2022-10-13T11:09:42.973Z,52.84
2022-10-13T11:12:20.247Z,53.31
2022-10-13T11:14:54.947Z,52.60
2022-10-13T11:17:31.605Z,52.04
2022-10-13T11:20:00.536Z,52.38
2022-10-13T11:22:30.290Z,52.06
2022-10-13T11:25:08.281Z,52.00
2022-10-13T11:27:36.234Z,51.83
2022-10-13T11:30:05.172Z,51.99
2022-10-13T11:32:41.996Z,51.36
2022-10-13T11:35:10.790Z,50.89
2022-10-13T11:38:06.815Z,50.91
2022-10-13T11:40:55.564Z,50.97
2022-10-13T11:43:42.375Z,51.89
2022-10-13T11:46:46.184Z,51.92
2022-10-13T11:49:36.270Z,52.09
2022-10-13T11:52:39.874Z,51.75
2022-10-13T11:55:42.757Z,51.86
2022-10-13T11:58:14.863Z,51.47
2022-10-13T12:01:06.867Z,51.32
2022-10-13T12:03:43.636Z,51.46
2022-10-13T12:06:34.339Z,51.41
2022-10-13T12:09:16.235Z,51.45
2022-10-13T12:11:44.923Z,52.20
2022-10-13T12:14:24.362Z,52.16
2022-10-13T12:16:54.291Z,52.27
2022-10-13T12:19:25.916Z,52.12
2022-10-13T12:21:56.559Z,51.93
2022-10-13T12:24:28.202Z,51.66
2022-10-13T12:26:57.699Z,51.77
2022-10-13T12:29:34.857Z,51.85
2022-10-13T12:32:19.856Z,51.67
2022-10-13T12:34:48.539Z,51.48
2022-10-13T12:37:33.577Z,51.02
2022-10-13T12:40:02.612Z,51.37
2022-10-13T12:42:33.130Z,51.64
2022-10-13T12:45:02.530Z,51.84
2022-10-13T12:47:49.750Z,51.72
2022-10-13T12:50:29.905Z,52.21
2022-10-13T12:53:22.261Z,52.33
2022-10-13T12:56:02.195Z,52.13
2022-10-13T12:58:35.814Z,52.49
2022-10-13T13:01:21.231Z,52.73
2022-10-13T13:03:56.240Z,51.88
2022-10-13T13:06:30.488Z,52.21
2022-10-13T13:09:31.809Z,56.32
2022-10-13T13:12:10.498Z,54.22
2022-10-13T13:14:39.786Z,49.77
2022-10-13T13:17:07.661Z,48.85
2022-10-13T13:19:36.653Z,49.47
2022-10-13T13:22:06.374Z,49.12
2022-10-13T13:24:40.079Z,49.84
2022-10-13T13:27:36.566Z,49.86
2022-10-13T13:30:09.896Z,49.06
2022-10-13T13:32:37.884Z,49.03
2022-10-13T13:35:06.520Z,48.75
2022-10-13T13:37:40.447Z,47.74
2022-10-13T13:40:16.299Z,46.42
2022-10-13T13:42:44.373Z,45.94
2022-10-13T13:45:14.386Z,45.44
2022-10-13T13:47:43.136Z,44.93
2022-10-13T13:50:27.012Z,44.77
2022-10-13T13:52:58.566Z,44.16
2022-10-13T13:55:27.863Z,44.07
2022-10-13T13:57:57.061Z,43.58
2022-10-13T14:00:25.134Z,44.01
2022-10-13T14:02:57.713Z,44.85
2022-10-13T14:05:26.100Z,45.63
2022-10-13T14:07:58.184Z,45.96
2022-10-13T14:10:26.936Z,47.14
2022-10-13T14:12:54.905Z,47.58
2022-10-13T14:15:27.259Z,47.40
2022-10-13T14:17:57.088Z,47.80
2022-10-13T14:20:24.955Z,48.31
2022-10-13T14:22:52.925Z,49.21
2022-10-13T14:25:21.199Z,49.62
2022-10-13T14:27:49.164Z,49.84
2022-10-13T14:30:17.234Z,50.08
2022-10-13T14:32:45.205Z,50.44
2022-10-13T14:35:13.170Z,50.40
2022-10-13T14:37:41.141Z,50.36
2022-10-13T14:40:09.610Z,50.52
2022-10-13T14:42:39.429Z,50.31
2022-10-13T14:45:09.349Z,50.60
2022-10-13T14:47:37.213Z,50.85
2022-10-13T14:50:06.101Z,51.01
2022-10-13T14:52:34.276Z,51.24
2022-10-13T14:55:02.385Z,51.22
2022-10-13T14:57:30.423Z,51.19
2022-10-13T15:00:01.874Z,51.18
2022-10-13T15:02:31.066Z,51.42
2022-10-13T15:04:59.054Z,51.75
2022-10-13T15:07:27.099Z,52.07
2022-10-13T15:10:04.858Z,52.21
2022-10-13T15:12:34.299Z,52.26
2022-10-13T15:15:02.885Z,52.23
2022-10-13T15:17:33.313Z,52.71
2022-10-13T15:20:01.277Z,53.20
2022-10-13T15:22:29.242Z,53.51
2022-10-13T15:24:57.522Z,53.90
2022-10-13T15:27:25.695Z,54.29
2022-10-13T15:29:53.662Z,54.70
2022-10-13T15:32:21.968Z,54.98
2022-10-13T15:34:56.049Z,55.69
2022-10-13T15:37:24.119Z,56.49
2022-10-13T15:39:56.853Z,57.24
2022-10-13T15:42:25.586Z,57.99
2022-10-13T15:45:10.751Z,58.57
2022-10-13T15:47:39.340Z,59.18
2022-10-13T15:50:09.574Z,59.39
2022-10-13T15:52:40.354Z,59.52
2022-10-13T15:55:10.823Z,59.75
2022-10-13T15:57:38.994Z,59.79
2022-10-13T16:00:08.783Z,59.59
2022-10-13T16:02:44.150Z,59.50
2022-10-13T16:05:13.194Z,59.49
2022-10-13T16:07:41.655Z,59.74
2022-10-13T16:10:12.435Z,59.65
2022-10-13T16:12:45.479Z,59.88
2022-10-13T16:15:18.221Z,59.95
2022-10-13T16:17:46.541Z,59.92
2022-10-13T16:20:14.567Z,60.00
2022-10-13T16:22:42.543Z,60.29
2022-10-13T16:25:12.193Z,60.30
2022-10-13T16:27:44.026Z,60.44
2022-10-13T16:30:12.977Z,60.69
2022-10-13T16:32:41.398Z,60.78
2022-10-13T16:35:10.089Z,60.98
2022-10-13T16:37:38.229Z,61.10
2022-10-13T16:40:06.709Z,61.13
2022-10-13T16:42:34.986Z,61.31
2022-10-13T16:45:03.668Z,61.52
2022-10-13T16:47:31.738Z,61.62
2022-10-13T16:49:59.710Z,61.67
2022-10-13T16:52:27.578Z,61.77
2022-10-13T16:54:55.540Z,61.93
2022-10-13T16:57:25.661Z,61.89
2022-10-13T16:59:53.790Z,61.97
2022-10-13T17:02:21.907Z,62.14
2022-10-13T17:04:50.076Z,62.18
2022-10-13T17:07:18.348Z,62.42
2022-10-13T17:09:47.555Z,62.51
2022-10-13T17:12:15.618Z,62.50
2022-10-13T17:14:43.592Z,62.83
2022-10-13T17:17:11.560Z,62.81
2022-10-13T17:19:39.471Z,62.77
2022-10-13T17:22:07.389Z,62.74
2022-10-13T17:24:35.360Z,62.67
2022-10-13T17:27:03.328Z,62.86
2022-10-13T17:29:31.395Z,62.83
2022-10-13T17:31:59.366Z,62.79
2022-10-13T17:34:27.333Z,62.84
2022-10-13T17:36:55.515Z,62.74
2022-10-13T17:39:23.785Z,62.81
2022-10-13T17:41:51.751Z,62.80
2022-10-13T17:44:21.051Z,63.05
2022-10-13T17:46:52.529Z,62.92
2022-10-13T17:49:20.569Z,62.99
2022-10-13T17:51:52.429Z,62.96
2022-10-13T17:54:21.424Z,62.98
2022-10-13T17:56:49.551Z,63.05
2022-10-13T17:59:18.338Z,63.10
2022-10-13T18:01:46.512Z,63.27
2022-10-13T18:04:17.189Z,63.32
2022-10-13T18:06:45.760Z,63.28
2022-10-13T18:09:17.939Z,63.44
2022-10-13T18:11:50.771Z,63.41
2022-10-13T18:14:21.577Z,63.42
2022-10-13T18:16:51.470Z,63.45
2022-10-13T18:19:21.405Z,63.52
2022-10-13T18:21:49.860Z,63.51
2022-10-13T18:24:17.927Z,63.55
2022-10-13T18:26:46.528Z,63.65
2022-10-13T18:29:14.582Z,63.71
2022-10-13T18:31:42.980Z,63.74
2022-10-13T18:34:14.251Z,63.81
2022-10-13T18:36:47.806Z,63.83
2022-10-13T18:39:25.245Z,63.79
2022-10-13T18:41:55.839Z,64.04
2022-10-13T18:44:27.279Z,64.04
2022-10-13T18:46:56.650Z,64.07
2022-10-13T18:49:31.333Z,64.10
2022-10-13T18:52:01.031Z,63.90
2022-10-13T18:54:30.383Z,63.96
2022-10-13T18:56:58.686Z,64.00
2022-10-13T18:59:26.761Z,63.78
2022-10-13T19:01:54.723Z,63.72
2022-10-13T19:04:23.104Z,63.69
2022-10-13T19:06:51.789Z,63.57
2022-10-13T19:09:21.662Z,63.69
2022-10-13T19:11:49.672Z,63.74
2022-10-13T19:14:19.175Z,63.74
2022-10-13T19:16:47.140Z,63.79
2022-10-13T19:19:15.320Z,63.82
2022-10-13T19:21:43.488Z,63.82
2022-10-13T19:24:12.103Z,64.05
2022-10-13T19:26:40.041Z,64.12
2022-10-13T19:29:11.618Z,64.06
2022-10-13T19:31:41.532Z,63.95
2022-10-13T19:34:11.625Z,63.91
2022-10-13T19:36:43.061Z,63.94
2022-10-13T19:39:23.638Z,63.96
2022-10-13T19:41:54.241Z,63.92
2022-10-13T19:44:24.081Z,63.96
2022-10-13T19:46:53.459Z,63.92
2022-10-13T19:49:25.174Z,63.88
2022-10-13T19:51:54.148Z,63.95
2022-10-13T19:54:23.276Z,64.10
2022-10-13T19:56:51.466Z,64.04
2022-10-13T19:59:19.912Z,64.06
2022-10-13T20:01:48.464Z,63.89
2022-10-13T20:04:18.712Z,64.04
2022-10-13T20:06:48.292Z,64.04
2022-10-13T20:09:18.035Z,64.09
2022-10-13T20:11:47.805Z,64.02
2022-10-13T20:14:17.572Z,64.09
2022-10-13T20:16:45.996Z,64.11
2022-10-13T20:19:16.317Z,64.08
2022-10-13T20:21:48.196Z,64.11
2022-10-13T20:24:16.247Z,64.15
2022-10-13T20:26:44.217Z,64.18
2022-10-13T20:29:12.273Z,64.28
2022-10-13T20:31:40.462Z,64.26
2022-10-13T20:34:10.733Z,64.37
2022-10-13T20:36:39.423Z,64.50
2022-10-13T20:39:09.073Z,64.66
2022-10-13T20:41:37.253Z,64.67
2022-10-13T20:44:06.241Z,64.73
2022-10-13T20:46:34.926Z,64.91
2022-10-13T20:49:13.010Z,64.94
2022-10-13T20:51:43.103Z,65.00
2022-10-13T20:54:13.825Z,64.98
2022-10-13T20:56:41.969Z,65.18
2022-10-13T20:59:12.588Z,65.18
2022-10-13T21:01:40.756Z,65.22
2022-10-13T21:04:09.646Z,65.32
2022-10-13T21:06:38.105Z,65.34
2022-10-13T21:09:06.929Z,65.42
2022-10-13T21:11:36.729Z,65.47
2022-10-13T21:14:07.135Z,65.64
2022-10-13T21:16:38.432Z,65.87
2022-10-13T21:19:10.051Z,65.90
2022-10-13T21:21:38.341Z,66.04
2022-10-13T21:24:07.898Z,66.07
2022-10-13T21:26:36.440Z,66.14
2022-10-13T21:29:04.893Z,66.14
2022-10-13T21:31:35.619Z,66.19
2022-10-13T21:34:04.131Z,66.34
2022-10-13T21:36:33.090Z,66.29
2022-10-13T21:39:04.103Z,66.37
2022-10-13T21:41:34.460Z,66.43
2022-10-13T21:44:03.364Z,66.47
2022-10-13T21:46:35.337Z,66.48
2022-10-13T21:49:05.820Z,66.57
2022-10-13T21:51:36.477Z,66.60
2022-10-13T21:54:13.661Z,66.71
2022-10-13T21:56:42.358Z,66.76
2022-10-13T21:59:12.770Z,66.83
2022-10-13T22:01:41.832Z,66.83
2022-10-13T22:04:14.847Z,66.98
2022-10-13T22:06:43.207Z,67.10
2022-10-13T22:09:11.397Z,67.01
2022-10-13T22:11:39.818Z,67.05
2022-10-13T22:14:13.999Z,67.18
2022-10-13T22:16:48.306Z,67.27
2022-10-13T22:19:18.294Z,67.32
2022-10-13T22:21:48.641Z,67.41
2022-10-13T22:24:19.688Z,67.41
2022-10-13T22:26:49.706Z,67.54
2022-10-13T22:29:20.705Z,67.52
2022-10-13T22:31:50.760Z,67.52
2022-10-13T22:34:18.750Z,67.52
2022-10-13T22:36:46.697Z,67.56
2022-10-13T22:39:15.201Z,67.56
2022-10-13T22:41:43.970Z,67.66
2022-10-13T22:44:12.818Z,67.58
2022-10-13T22:46:41.027Z,67.70
2022-10-13T22:49:13.610Z,67.69
2022-10-13T22:51:41.725Z,67.79
2022-10-13T22:54:10.049Z,67.80
2022-10-13T22:56:38.018Z,67.80
2022-10-13T22:59:08.266Z,67.99
2022-10-13T23:01:36.491Z,67.99
2022-10-13T23:04:04.994Z,68.26
2022-10-13T23:06:34.525Z,68.33
2022-10-13T23:09:06.630Z,68.52
2022-10-13T23:11:35.559Z,68.78
2022-10-13T23:14:06.491Z,68.86
2022-10-13T23:16:34.872Z,68.88
2022-10-13T23:19:03.819Z,68.94
2022-10-13T23:21:32.034Z,69.07
2022-10-13T23:24:02.795Z,69.17
2022-10-13T23:26:31.612Z,69.21
2022-10-13T23:28:59.768Z,69.37
2022-10-13T23:31:28.833Z,69.39
2022-10-13T23:33:57.508Z,69.59
2022-10-13T23:36:28.652Z,69.63
2022-10-13T23:39:06.963Z,69.73
2022-10-13T23:41:38.005Z,69.86
2022-10-13T23:44:05.973Z,69.83
2022-10-13T23:46:34.140Z,69.82
2022-10-13T23:49:02.111Z,69.84
2022-10-13T23:51:30.592Z,69.99
2022-10-13T23:53:59.243Z,69.95
2022-10-13T23:56:27.712Z,69.98
2022-10-13T23:58:55.731Z,70.12
